sensor_id;sensor_type;location;lat;lon;timestamp;P1;durP1;ratioP1;P2;durP2;ratioP2
19951;SDS011;10137;49.406;19.484;2023-02-23T00:02:11;55.67;;;24.83;;
19951;SDS011;10137;49.406;19.484;2023-02-23T00:04:39;52.93;;;24.20;;
19951;SDS011;10137;49.406;19.484;2023-02-23T00:07:08;51.23;;;23.30;;
19951;SDS011;10137;49.406;19.484;2023-02-23T00:09:36;46.80;;;22.37;;
19951;SDS011;10137;49.406;19.484;2023-02-23T00:12:06;46.23;;;21.03;;
19951;SDS011;10137;49.406;19.484;2023-02-23T00:14:34;54.70;;;21.60;;
19951;SDS011;10137;49.406;19.484;2023-02-23T00:17:03;54.80;;;25.63;;
19951;SDS011;10137;49.406;19.484;2023-02-23T00:19:39;68.90;;;29.90;;
19951;SDS011;10137;49.406;19.484;2023-02-23T00:22:10;73.63;;;32.30;;
19951;SDS011;10137;49.406;19.484;2023-02-23T00:24:38;73.30;;;32.47;;
19951;SDS011;10137;49.406;19.484;2023-02-23T00:27:07;69.70;;;31.77;;
19951;SDS011;10137;49.406;19.484;2023-02-23T00:29:35;67.00;;;28.60;;
19951;SDS011;10137;49.406;19.484;2023-02-23T00:32:05;50.83;;;24.00;;
19951;SDS011;10137;49.406;19.484;2023-02-23T00:34:34;49.13;;;21.57;;
19951;SDS011;10137;49.406;19.484;2023-02-23T00:37:03;43.33;;;21.87;;
19951;SDS011;10137;49.406;19.484;2023-02-23T00:39:38;55.93;;;26.07;;
19951;SDS011;10137;49.406;19.484;2023-02-23T00:42:04;52.77;;;25.10;;
19951;SDS011;10137;49.406;19.484;2023-02-23T00:44:33;48.93;;;23.20;;
19951;SDS011;10137;49.406;19.484;2023-02-23T00:47:01;55.77;;;24.27;;
19951;SDS011;10137;49.406;19.484;2023-02-23T00:49:29;46.37;;;22.30;;
19951;SDS011;10137;49.406;19.484;2023-02-23T00:51:58;46.03;;;21.53;;
19951;SDS011;10137;49.406;19.484;2023-02-23T00:54:25;46.23;;;20.53;;
19951;SDS011;10137;49.406;19.484;2023-02-23T00:56:58;43.63;;;19.80;;
19951;SDS011;10137;49.406;19.484;2023-02-23T00:59:27;47.40;;;21.03;;
19951;SDS011;10137;49.406;19.484;2023-02-23T01:01:55;44.90;;;20.40;;
19951;SDS011;10137;49.406;19.484;2023-02-23T01:04:23;42.73;;;19.23;;
19951;SDS011;10137;49.406;19.484;2023-02-23T01:06:51;42.07;;;20.60;;
19951;SDS011;10137;49.406;19.484;2023-02-23T01:09:20;46.93;;;21.13;;
19951;SDS011;10137;49.406;19.484;2023-02-23T01:11:55;40.77;;;20.27;;
19951;SDS011;10137;49.406;19.484;2023-02-23T01:14:27;41.70;;;19.27;;
19951;SDS011;10137;49.406;19.484;2023-02-23T01:16:56;45.47;;;19.47;;
19951;SDS011;10137;49.406;19.484;2023-02-23T01:19:24;49.10;;;19.50;;
19951;SDS011;10137;49.406;19.484;2023-02-23T01:21:53;39.60;;;18.90;;
19951;SDS011;10137;49.406;19.484;2023-02-23T01:24:21;42.90;;;19.70;;
19951;SDS011;10137;49.406;19.484;2023-02-23T01:26:50;45.27;;;19.97;;
19951;SDS011;10137;49.406;19.484;2023-02-23T01:29:20;40.63;;;19.40;;
19951;SDS011;10137;49.406;19.484;2023-02-23T01:31:49;47.47;;;20.27;;
19951;SDS011;10137;49.406;19.484;2023-02-23T01:34:18;45.83;;;20.13;;
19951;SDS011;10137;49.406;19.484;2023-02-23T01:36:48;49.70;;;21.40;;
19951;SDS011;10137;49.406;19.484;2023-02-23T01:39:17;43.83;;;19.90;;
19951;SDS011;10137;49.406;19.484;2023-02-23T01:41:47;47.23;;;19.33;;
19951;SDS011;10137;49.406;19.484;2023-02-23T01:47:24;43.57;;;18.87;;
19951;SDS011;10137;49.406;19.484;2023-02-23T01:49:53;46.13;;;20.23;;
19951;SDS011;10137;49.406;19.484;2023-02-23T01:52:21;49.17;;;20.57;;
19951;SDS011;10137;49.406;19.484;2023-02-23T01:54:48;45.93;;;20.27;;
19951;SDS011;10137;49.406;19.484;2023-02-23T01:57:20;45.73;;;20.30;;
19951;SDS011;10137;49.406;19.484;2023-02-23T01:59:52;47.20;;;21.00;;
19951;SDS011;10137;49.406;19.484;2023-02-23T02:02:22;40.20;;;19.03;;
19951;SDS011;10137;49.406;19.484;2023-02-23T02:05:00;41.37;;;19.27;;
19951;SDS011;10137;49.406;19.484;2023-02-23T02:07:31;43.27;;;19.90;;
19951;SDS011;10137;49.406;19.484;2023-02-23T02:10:05;55.43;;;23.03;;
19951;SDS011;10137;49.406;19.484;2023-02-23T02:12:53;64.30;;;26.13;;
19951;SDS011;10137;49.406;19.484;2023-02-23T02:15:25;50.60;;;24.37;;
19951;SDS011;10137;49.406;19.484;2023-02-23T02:18:07;54.30;;;24.17;;
19951;SDS011;10137;49.406;19.484;2023-02-23T02:20:51;56.80;;;26.00;;
19951;SDS011;10137;49.406;19.484;2023-02-23T02:23:47;57.10;;;26.17;;
19951;SDS011;10137;49.406;19.484;2023-02-23T02:26:40;56.50;;;25.83;;
19951;SDS011;10137;49.406;19.484;2023-02-23T02:35:32;70.23;;;32.77;;
19951;SDS011;10137;49.406;19.484;2023-02-23T02:38:26;86.63;;;36.20;;
19951;SDS011;10137;49.406;19.484;2023-02-23T02:41:16;76.60;;;34.50;;
19951;SDS011;10137;49.406;19.484;2023-02-23T02:43:53;78.57;;;36.83;;
19951;SDS011;10137;49.406;19.484;2023-02-23T02:46:25;72.97;;;36.57;;
19951;SDS011;10137;49.406;19.484;2023-02-23T02:48:56;71.20;;;36.00;;
19951;SDS011;10137;49.406;19.484;2023-02-23T02:51:34;78.37;;;35.07;;
19951;SDS011;10137;49.406;19.484;2023-02-23T02:54:13;77.67;;;33.27;;
19951;SDS011;10137;49.406;19.484;2023-02-23T02:56:50;68.97;;;33.67;;
19951;SDS011;10137;49.406;19.484;2023-02-23T02:59:22;66.60;;;33.67;;
19951;SDS011;10137;49.406;19.484;2023-02-23T03:02:10;71.00;;;32.13;;
19951;SDS011;10137;49.406;19.484;2023-02-23T03:04:59;60.67;;;30.70;;
19951;SDS011;10137;49.406;19.484;2023-02-23T03:07:48;59.47;;;27.93;;
19951;SDS011;10137;49.406;19.484;2023-02-23T03:10:46;55.63;;;26.13;;
19951;SDS011;10137;49.406;19.484;2023-02-23T03:13:43;56.27;;;26.40;;
19951;SDS011;10137;49.406;19.484;2023-02-23T03:16:39;57.97;;;26.40;;
19951;SDS011;10137;49.406;19.484;2023-02-23T03:19:35;52.37;;;25.27;;
19951;SDS011;10137;49.406;19.484;2023-02-23T03:22:31;49.60;;;21.50;;
19951;SDS011;10137;49.406;19.484;2023-02-23T03:25:23;46.10;;;19.90;;
19951;SDS011;10137;49.406;19.484;2023-02-23T03:28:15;45.23;;;19.53;;
19951;SDS011;10137;49.406;19.484;2023-02-23T03:31:06;42.43;;;19.50;;
19951;SDS011;10137;49.406;19.484;2023-02-23T03:33:59;42.13;;;18.73;;
19951;SDS011;10137;49.406;19.484;2023-02-23T03:36:54;46.87;;;19.20;;
19951;SDS011;10137;49.406;19.484;2023-02-23T03:39:46;42.33;;;19.93;;
19951;SDS011;10137;49.406;19.484;2023-02-23T03:42:36;53.17;;;20.73;;
19951;SDS011;10137;49.406;19.484;2023-02-23T03:45:25;59.47;;;24.33;;
19951;SDS011;10137;49.406;19.484;2023-02-23T03:48:12;56.80;;;22.70;;
19951;SDS011;10137;49.406;19.484;2023-02-23T03:51:03;56.60;;;25.20;;
19951;SDS011;10137;49.406;19.484;2023-02-23T03:53:52;62.40;;;25.53;;
19951;SDS011;10137;49.406;19.484;2023-02-23T03:56:43;62.70;;;23.60;;
19951;SDS011;10137;49.406;19.484;2023-02-23T03:59:33;54.33;;;23.00;;
19951;SDS011;10137;49.406;19.484;2023-02-23T04:02:25;54.63;;;24.00;;
19951;SDS011;10137;49.406;19.484;2023-02-23T04:05:12;51.50;;;22.70;;
19951;SDS011;10137;49.406;19.484;2023-02-23T04:08:02;56.90;;;24.63;;
19951;SDS011;10137;49.406;19.484;2023-02-23T04:10:53;57.03;;;23.40;;
19951;SDS011;10137;49.406;19.484;2023-02-23T04:13:44;55.23;;;22.80;;
19951;SDS011;10137;49.406;19.484;2023-02-23T04:16:16;56.60;;;22.73;;
19951;SDS011;10137;49.406;19.484;2023-02-23T04:18:47;59.03;;;22.83;;
19951;SDS011;10137;49.406;19.484;2023-02-23T04:21:15;50.07;;;22.17;;
19951;SDS011;10137;49.406;19.484;2023-02-23T04:23:43;49.03;;;21.23;;
19951;SDS011;10137;49.406;19.484;2023-02-23T04:26:11;53.10;;;23.50;;
19951;SDS011;10137;49.406;19.484;2023-02-23T04:28:39;55.10;;;23.53;;
19951;SDS011;10137;49.406;19.484;2023-02-23T04:31:07;56.37;;;24.93;;
19951;SDS011;10137;49.406;19.484;2023-02-23T04:33:36;55.73;;;24.70;;
19951;SDS011;10137;49.406;19.484;2023-02-23T04:36:06;54.60;;;24.20;;
19951;SDS011;10137;49.406;19.484;2023-02-23T04:38:35;53.77;;;23.23;;
19951;SDS011;10137;49.406;19.484;2023-02-23T04:41:04;51.50;;;23.40;;
19951;SDS011;10137;49.406;19.484;2023-02-23T04:43:32;49.97;;;23.40;;
19951;SDS011;10137;49.406;19.484;2023-02-23T04:46:05;55.10;;;25.10;;
19951;SDS011;10137;49.406;19.484;2023-02-23T04:48:34;50.53;;;23.17;;
19951;SDS011;10137;49.406;19.484;2023-02-23T04:51:02;55.23;;;25.90;;
19951;SDS011;10137;49.406;19.484;2023-02-23T04:53:32;60.43;;;27.63;;
19951;SDS011;10137;49.406;19.484;2023-02-23T04:56:01;59.33;;;27.13;;
19951;SDS011;10137;49.406;19.484;2023-02-23T04:58:29;58.03;;;26.27;;
19951;SDS011;10137;49.406;19.484;2023-02-23T05:01:02;55.43;;;25.67;;
19951;SDS011;10137;49.406;19.484;2023-02-23T05:03:32;59.53;;;26.60;;
19951;SDS011;10137;49.406;19.484;2023-02-23T05:06:03;59.90;;;25.43;;
19951;SDS011;10137;49.406;19.484;2023-02-23T05:08:33;60.30;;;24.77;;
19951;SDS011;10137;49.406;19.484;2023-02-23T05:11:01;56.43;;;24.07;;
19951;SDS011;10137;49.406;19.484;2023-02-23T05:13:31;60.97;;;24.87;;
19951;SDS011;10137;49.406;19.484;2023-02-23T05:15:59;58.87;;;24.97;;
19951;SDS011;10137;49.406;19.484;2023-02-23T05:18:28;63.67;;;26.03;;
19951;SDS011;10137;49.406;19.484;2023-02-23T05:21:00;66.80;;;26.83;;
19951;SDS011;10137;49.406;19.484;2023-02-23T05:23:32;74.30;;;31.33;;
19951;SDS011;10137;49.406;19.484;2023-02-23T05:26:01;73.53;;;32.80;;
19951;SDS011;10137;49.406;19.484;2023-02-23T05:28:32;82.93;;;34.40;;
19951;SDS011;10137;49.406;19.484;2023-02-23T05:30:59;70.20;;;32.93;;
19951;SDS011;10137;49.406;19.484;2023-02-23T05:33:27;83.00;;;34.63;;
19951;SDS011;10137;49.406;19.484;2023-02-23T05:36:08;73.77;;;34.40;;
19951;SDS011;10137;49.406;19.484;2023-02-23T05:38:39;72.43;;;33.50;;
19951;SDS011;10137;49.406;19.484;2023-02-23T05:41:08;79.47;;;35.70;;
19951;SDS011;10137;49.406;19.484;2023-02-23T05:43:38;77.93;;;35.00;;
19951;SDS011;10137;49.406;19.484;2023-02-23T05:46:09;69.03;;;32.53;;
19951;SDS011;10137;49.406;19.484;2023-02-23T05:48:37;65.30;;;30.37;;
19951;SDS011;10137;49.406;19.484;2023-02-23T05:51:06;67.63;;;31.60;;
19951;SDS011;10137;49.406;19.484;2023-02-23T05:53:39;66.43;;;30.93;;
19951;SDS011;10137;49.406;19.484;2023-02-23T05:56:11;66.57;;;32.50;;
19951;SDS011;10137;49.406;19.484;2023-02-23T05:58:46;61.50;;;28.10;;
19951;SDS011;10137;49.406;19.484;2023-02-23T06:01:20;72.50;;;32.00;;
19951;SDS011;10137;49.406;19.484;2023-02-23T06:03:50;59.63;;;26.60;;
19951;SDS011;10137;49.406;19.484;2023-02-23T06:06:19;57.10;;;25.47;;
19951;SDS011;10137;49.406;19.484;2023-02-23T06:08:57;58.83;;;25.70;;
19951;SDS011;10137;49.406;19.484;2023-02-23T06:11:29;60.93;;;27.00;;
19951;SDS011;10137;49.406;19.484;2023-02-23T06:13:58;63.30;;;26.73;;
19951;SDS011;10137;49.406;19.484;2023-02-23T06:16:29;69.50;;;27.43;;
19951;SDS011;10137;49.406;19.484;2023-02-23T06:18:57;69.20;;;28.23;;
19951;SDS011;10137;49.406;19.484;2023-02-23T06:21:29;67.77;;;28.20;;
19951;SDS011;10137;49.406;19.484;2023-02-23T06:24:01;64.90;;;27.77;;
19951;SDS011;10137;49.406;19.484;2023-02-23T06:26:28;61.30;;;25.37;;
19951;SDS011;10137;49.406;19.484;2023-02-23T06:28:57;62.00;;;25.40;;
19951;SDS011;10137;49.406;19.484;2023-02-23T06:31:26;65.83;;;26.03;;
19951;SDS011;10137;49.406;19.484;2023-02-23T06:33:54;67.97;;;27.63;;
19951;SDS011;10137;49.406;19.484;2023-02-23T06:36:22;62.00;;;26.43;;
19951;SDS011;10137;49.406;19.484;2023-02-23T06:38:50;76.63;;;30.03;;
19951;SDS011;10137;49.406;19.484;2023-02-23T06:41:25;113.60;;;37.40;;
19951;SDS011;10137;49.406;19.484;2023-02-23T06:43:53;78.43;;;31.73;;
19951;SDS011;10137;49.406;19.484;2023-02-23T06:46:24;73.57;;;29.87;;
19951;SDS011;10137;49.406;19.484;2023-02-23T06:48:53;71.43;;;29.63;;
19951;SDS011;10137;49.406;19.484;2023-02-23T06:51:22;71.97;;;27.87;;
19951;SDS011;10137;49.406;19.484;2023-02-23T06:53:49;79.57;;;30.63;;
19951;SDS011;10137;49.406;19.484;2023-02-23T06:56:18;69.00;;;28.20;;
19951;SDS011;10137;49.406;19.484;2023-02-23T06:58:48;67.60;;;29.40;;
19951;SDS011;10137;49.406;19.484;2023-02-23T07:01:16;71.87;;;31.03;;
19951;SDS011;10137;49.406;19.484;2023-02-23T07:03:45;72.63;;;29.80;;
19951;SDS011;10137;49.406;19.484;2023-02-23T07:06:13;77.23;;;33.10;;
19951;SDS011;10137;49.406;19.484;2023-02-23T07:08:41;80.40;;;34.33;;
19951;SDS011;10137;49.406;19.484;2023-02-23T07:11:10;78.30;;;36.57;;
19951;SDS011;10137;49.406;19.484;2023-02-23T07:13:41;78.33;;;30.93;;
19951;SDS011;10137;49.406;19.484;2023-02-23T07:16:10;70.77;;;29.40;;
19951;SDS011;10137;49.406;19.484;2023-02-23T07:18:39;70.70;;;29.93;;
19951;SDS011;10137;49.406;19.484;2023-02-23T07:21:07;75.57;;;33.03;;
19951;SDS011;10137;49.406;19.484;2023-02-23T07:23:35;70.47;;;28.97;;
19951;SDS011;10137;49.406;19.484;2023-02-23T07:26:06;66.90;;;27.47;;
19951;SDS011;10137;49.406;19.484;2023-02-23T07:28:34;62.17;;;25.90;;
19951;SDS011;10137;49.406;19.484;2023-02-23T07:31:03;62.30;;;25.87;;
19951;SDS011;10137;49.406;19.484;2023-02-23T07:33:34;62.97;;;28.07;;
19951;SDS011;10137;49.406;19.484;2023-02-23T07:36:02;66.30;;;28.47;;
19951;SDS011;10137;49.406;19.484;2023-02-23T07:38:32;61.87;;;26.10;;
19951;SDS011;10137;49.406;19.484;2023-02-23T07:41:00;60.57;;;27.07;;
19951;SDS011;10137;49.406;19.484;2023-02-23T07:43:28;68.50;;;29.73;;
19951;SDS011;10137;49.406;19.484;2023-02-23T07:45:57;61.53;;;28.90;;
19951;SDS011;10137;49.406;19.484;2023-02-23T07:48:27;66.53;;;27.20;;
19951;SDS011;10137;49.406;19.484;2023-02-23T07:50:56;56.03;;;24.80;;
19951;SDS011;10137;49.406;19.484;2023-02-23T07:53:25;58.83;;;22.73;;
19951;SDS011;10137;49.406;19.484;2023-02-23T07:55:56;50.57;;;23.60;;
19951;SDS011;10137;49.406;19.484;2023-02-23T07:58:25;53.87;;;23.33;;
19951;SDS011;10137;49.406;19.484;2023-02-23T08:00:54;59.43;;;24.20;;
19951;SDS011;10137;49.406;19.484;2023-02-23T08:03:23;52.40;;;24.73;;
19951;SDS011;10137;49.406;19.484;2023-02-23T08:05:51;62.87;;;23.27;;
19951;SDS011;10137;49.406;19.484;2023-02-23T08:08:19;53.67;;;23.77;;
19951;SDS011;10137;49.406;19.484;2023-02-23T08:10:46;55.30;;;24.47;;
19951;SDS011;10137;49.406;19.484;2023-02-23T08:13:13;54.63;;;24.97;;
19951;SDS011;10137;49.406;19.484;2023-02-23T08:15:40;61.57;;;25.50;;
19951;SDS011;10137;49.406;19.484;2023-02-23T08:18:08;58.77;;;25.87;;
19951;SDS011;10137;49.406;19.484;2023-02-23T08:20:35;57.50;;;23.10;;
19951;SDS011;10137;49.406;19.484;2023-02-23T08:23:02;55.17;;;23.17;;
19951;SDS011;10137;49.406;19.484;2023-02-23T08:25:31;56.90;;;24.00;;
19951;SDS011;10137;49.406;19.484;2023-02-23T08:27:58;53.07;;;24.73;;
19951;SDS011;10137;49.406;19.484;2023-02-23T08:30:28;49.40;;;23.20;;
19951;SDS011;10137;49.406;19.484;2023-02-23T08:32:56;54.20;;;24.50;;
19951;SDS011;10137;49.406;19.484;2023-02-23T08:35:23;46.07;;;21.70;;
19951;SDS011;10137;49.406;19.484;2023-02-23T08:37:50;47.07;;;22.30;;
19951;SDS011;10137;49.406;19.484;2023-02-23T08:40:17;48.43;;;22.47;;
19951;SDS011;10137;49.406;19.484;2023-02-23T08:42:46;53.50;;;23.70;;
19951;SDS011;10137;49.406;19.484;2023-02-23T08:45:16;51.47;;;23.97;;
19951;SDS011;10137;49.406;19.484;2023-02-23T08:47:44;51.77;;;22.57;;
19951;SDS011;10137;49.406;19.484;2023-02-23T08:50:11;53.50;;;24.30;;
19951;SDS011;10137;49.406;19.484;2023-02-23T08:52:39;51.77;;;22.60;;
19951;SDS011;10137;49.406;19.484;2023-02-23T08:55:06;61.80;;;24.83;;
19951;SDS011;10137;49.406;19.484;2023-02-23T08:57:36;54.43;;;23.20;;
19951;SDS011;10137;49.406;19.484;2023-02-23T09:00:05;57.03;;;24.13;;
19951;SDS011;10137;49.406;19.484;2023-02-23T09:02:38;53.00;;;24.27;;
19951;SDS011;10137;49.406;19.484;2023-02-23T09:05:05;53.37;;;23.97;;
19951;SDS011;10137;49.406;19.484;2023-02-23T09:07:33;48.37;;;22.43;;
19951;SDS011;10137;49.406;19.484;2023-02-23T09:10:00;44.63;;;20.73;;
19951;SDS011;10137;49.406;19.484;2023-02-23T09:12:27;37.97;;;19.63;;
19951;SDS011;10137;49.406;19.484;2023-02-23T09:14:54;38.57;;;19.50;;
19951;SDS011;10137;49.406;19.484;2023-02-23T09:17:22;36.70;;;19.10;;
19951;SDS011;10137;49.406;19.484;2023-02-23T09:19:50;42.57;;;20.27;;
19951;SDS011;10137;49.406;19.484;2023-02-23T09:22:17;47.13;;;22.03;;
19951;SDS011;10137;49.406;19.484;2023-02-23T09:24:44;47.13;;;22.40;;
19951;SDS011;10137;49.406;19.484;2023-02-23T09:27:11;47.50;;;22.53;;
19951;SDS011;10137;49.406;19.484;2023-02-23T09:29:38;44.87;;;22.53;;
19951;SDS011;10137;49.406;19.484;2023-02-23T09:32:07;53.40;;;22.90;;
19951;SDS011;10137;49.406;19.484;2023-02-23T09:34:36;50.33;;;23.47;;
19951;SDS011;10137;49.406;19.484;2023-02-23T09:37:03;51.77;;;23.40;;
19951;SDS011;10137;49.406;19.484;2023-02-23T09:39:30;48.40;;;23.20;;
19951;SDS011;10137;49.406;19.484;2023-02-23T09:44:54;59.37;;;25.17;;
19951;SDS011;10137;49.406;19.484;2023-02-23T09:47:30;56.53;;;25.97;;
19951;SDS011;10137;49.406;19.484;2023-02-23T09:50:16;53.93;;;25.47;;
19951;SDS011;10137;49.406;19.484;2023-02-23T09:52:48;62.03;;;25.83;;
19951;SDS011;10137;49.406;19.484;2023-02-23T09:55:18;63.07;;;26.97;;
19951;SDS011;10137;49.406;19.484;2023-02-23T09:57:46;58.80;;;26.67;;
19951;SDS011;10137;49.406;19.484;2023-02-23T10:00:18;65.90;;;26.47;;
19951;SDS011;10137;49.406;19.484;2023-02-23T10:02:54;68.40;;;27.40;;
19951;SDS011;10137;49.406;19.484;2023-02-23T10:05:38;67.97;;;28.63;;
19951;SDS011;10137;49.406;19.484;2023-02-23T10:08:13;69.90;;;28.73;;
19951;SDS011;10137;49.406;19.484;2023-02-23T10:10:48;65.90;;;27.97;;
19951;SDS011;10137;49.406;19.484;2023-02-23T10:13:24;58.37;;;27.10;;
19951;SDS011;10137;49.406;19.484;2023-02-23T10:15:59;64.63;;;28.77;;
19951;SDS011;10137;49.406;19.484;2023-02-23T10:18:33;64.10;;;27.10;;
19951;SDS011;10137;49.406;19.484;2023-02-23T10:21:05;65.13;;;28.10;;
19951;SDS011;10137;49.406;19.484;2023-02-23T10:23:37;62.70;;;27.63;;
19951;SDS011;10137;49.406;19.484;2023-02-23T10:26:11;61.50;;;26.90;;
19951;SDS011;10137;49.406;19.484;2023-02-23T10:28:42;55.40;;;26.70;;
19951;SDS011;10137;49.406;19.484;2023-02-23T10:31:18;56.47;;;27.70;;
19951;SDS011;10137;49.406;19.484;2023-02-23T10:33:51;59.67;;;27.30;;
19951;SDS011;10137;49.406;19.484;2023-02-23T10:36:26;62.93;;;28.30;;
19951;SDS011;10137;49.406;19.484;2023-02-23T10:39:00;61.70;;;28.97;;
19951;SDS011;10137;49.406;19.484;2023-02-23T10:41:30;60.83;;;28.03;;
19951;SDS011;10137;49.406;19.484;2023-02-23T10:43:58;63.40;;;28.70;;
19951;SDS011;10137;49.406;19.484;2023-02-23T10:46:28;60.53;;;28.33;;
19951;SDS011;10137;49.406;19.484;2023-02-23T10:49:05;71.90;;;31.40;;
19951;SDS011;10137;49.406;19.484;2023-02-23T10:51:35;70.47;;;32.20;;
19951;SDS011;10137;49.406;19.484;2023-02-23T10:57:02;54.37;;;27.47;;
19951;SDS011;10137;49.406;19.484;2023-02-23T10:59:32;65.63;;;28.60;;
19951;SDS011;10137;49.406;19.484;2023-02-23T11:02:14;61.10;;;27.37;;
19951;SDS011;10137;49.406;19.484;2023-02-23T11:04:52;59.27;;;26.87;;
19951;SDS011;10137;49.406;19.484;2023-02-23T11:07:23;64.80;;;27.87;;
19951;SDS011;10137;49.406;19.484;2023-02-23T11:09:53;69.63;;;29.53;;
19951;SDS011;10137;49.406;19.484;2023-02-23T11:12:22;57.73;;;27.80;;
19951;SDS011;10137;49.406;19.484;2023-02-23T11:14:52;56.27;;;27.63;;
19951;SDS011;10137;49.406;19.484;2023-02-23T11:17:28;58.33;;;27.27;;
19951;SDS011;10137;49.406;19.484;2023-02-23T11:20:02;58.67;;;27.10;;
19951;SDS011;10137;49.406;19.484;2023-02-23T11:22:34;50.93;;;25.63;;
19951;SDS011;10137;49.406;19.484;2023-02-23T11:25:12;57.37;;;25.77;;
19951;SDS011;10137;49.406;19.484;2023-02-23T11:27:44;56.50;;;26.60;;
19951;SDS011;10137;49.406;19.484;2023-02-23T11:30:15;55.10;;;26.77;;
19951;SDS011;10137;49.406;19.484;2023-02-23T11:32:49;53.67;;;26.20;;
19951;SDS011;10137;49.406;19.484;2023-02-23T11:35:24;53.77;;;26.40;;
19951;SDS011;10137;49.406;19.484;2023-02-23T11:37:57;50.33;;;25.00;;
19951;SDS011;10137;49.406;19.484;2023-02-23T11:40:25;47.57;;;23.37;;
19951;SDS011;10137;49.406;19.484;2023-02-23T11:42:54;41.13;;;19.53;;
19951;SDS011;10137;49.406;19.484;2023-02-23T11:45:22;33.50;;;18.30;;
19951;SDS011;10137;49.406;19.484;2023-02-23T11:47:52;29.70;;;13.43;;
19951;SDS011;10137;49.406;19.484;2023-02-23T11:50:23;18.77;;;8.43;;
19951;SDS011;10137;49.406;19.484;2023-02-23T11:52:54;16.77;;;9.03;;
19951;SDS011;10137;49.406;19.484;2023-02-23T11:55:25;19.57;;;9.50;;
19951;SDS011;10137;49.406;19.484;2023-02-23T11:58:05;23.23;;;9.07;;
19951;SDS011;10137;49.406;19.484;2023-02-23T12:00:34;16.53;;;8.90;;
19951;SDS011;10137;49.406;19.484;2023-02-23T12:03:01;15.70;;;8.97;;
19951;SDS011;10137;49.406;19.484;2023-02-23T12:05:29;15.23;;;9.13;;
19951;SDS011;10137;49.406;19.484;2023-02-23T12:08:00;16.57;;;8.27;;
19951;SDS011;10137;49.406;19.484;2023-02-23T12:10:30;15.60;;;8.27;;
19951;SDS011;10137;49.406;19.484;2023-02-23T12:13:04;13.73;;;7.97;;
19951;SDS011;10137;49.406;19.484;2023-02-23T12:15:43;16.27;;;8.90;;
19951;SDS011;10137;49.406;19.484;2023-02-23T12:18:17;15.13;;;7.70;;
19951;SDS011;10137;49.406;19.484;2023-02-23T12:20:54;13.57;;;8.47;;
19951;SDS011;10137;49.406;19.484;2023-02-23T12:23:28;16.43;;;8.63;;
19951;SDS011;10137;49.406;19.484;2023-02-23T12:26:00;15.40;;;8.37;;
19951;SDS011;10137;49.406;19.484;2023-02-23T12:28:35;16.00;;;8.40;;
19951;SDS011;10137;49.406;19.484;2023-02-23T12:31:27;15.20;;;8.80;;
19951;SDS011;10137;49.406;19.484;2023-02-23T12:34:01;17.60;;;8.97;;
19951;SDS011;10137;49.406;19.484;2023-02-23T12:36:38;14.57;;;8.80;;
19951;SDS011;10137;49.406;19.484;2023-02-23T12:39:15;18.80;;;8.87;;
19951;SDS011;10137;49.406;19.484;2023-02-23T12:41:54;20.27;;;8.40;;
19951;SDS011;10137;49.406;19.484;2023-02-23T12:44:32;17.50;;;8.97;;
19951;SDS011;10137;49.406;19.484;2023-02-23T12:47:11;16.70;;;8.10;;
19951;SDS011;10137;49.406;19.484;2023-02-23T12:49:54;18.93;;;8.87;;
19951;SDS011;10137;49.406;19.484;2023-02-23T12:52:32;22.77;;;8.80;;
19951;SDS011;10137;49.406;19.484;2023-02-23T12:55:04;26.00;;;10.10;;
19951;SDS011;10137;49.406;19.484;2023-02-23T12:57:36;16.23;;;9.70;;
19951;SDS011;10137;49.406;19.484;2023-02-23T13:03:09;19.97;;;8.53;;
19951;SDS011;10137;49.406;19.484;2023-02-23T13:06:00;16.93;;;9.70;;
19951;SDS011;10137;49.406;19.484;2023-02-23T13:08:46;16.07;;;9.40;;
19951;SDS011;10137;49.406;19.484;2023-02-23T13:11:29;19.47;;;9.50;;
19951;SDS011;10137;49.406;19.484;2023-02-23T13:14:12;22.27;;;9.73;;
19951;SDS011;10137;49.406;19.484;2023-02-23T13:16:46;25.07;;;10.40;;
19951;SDS011;10137;49.406;19.484;2023-02-23T13:19:19;17.13;;;9.30;;
19951;SDS011;10137;49.406;19.484;2023-02-23T13:21:50;17.13;;;8.97;;
19951;SDS011;10137;49.406;19.484;2023-02-23T13:24:25;16.30;;;8.60;;
19951;SDS011;10137;49.406;19.484;2023-02-23T13:27:02;18.27;;;8.83;;
19951;SDS011;10137;49.406;19.484;2023-02-23T13:29:41;17.60;;;8.40;;
19951;SDS011;10137;49.406;19.484;2023-02-23T13:32:12;11.73;;;7.83;;
19951;SDS011;10137;49.406;19.484;2023-02-23T13:34:43;14.10;;;7.70;;
19951;SDS011;10137;49.406;19.484;2023-02-23T13:37:18;12.93;;;7.87;;
19951;SDS011;10137;49.406;19.484;2023-02-23T13:39:52;18.57;;;6.80;;
19951;SDS011;10137;49.406;19.484;2023-02-23T13:42:38;14.13;;;6.60;;
19951;SDS011;10137;49.406;19.484;2023-02-23T13:45:22;9.63;;;6.60;;
19951;SDS011;10137;49.406;19.484;2023-02-23T13:48:23;13.83;;;6.70;;
19951;SDS011;10137;49.406;19.484;2023-02-23T13:51:00;14.00;;;7.60;;
19951;SDS011;10137;49.406;19.484;2023-02-23T13:53:37;15.33;;;8.23;;
19951;SDS011;10137;49.406;19.484;2023-02-23T13:56:07;20.03;;;8.47;;
19951;SDS011;10137;49.406;19.484;2023-02-23T13:58:38;16.30;;;8.13;;
19951;SDS011;10137;49.406;19.484;2023-02-23T14:01:13;19.87;;;9.57;;
19951;SDS011;10137;49.406;19.484;2023-02-23T14:03:44;15.97;;;8.70;;
19951;SDS011;10137;49.406;19.484;2023-02-23T14:06:19;16.93;;;8.77;;
19951;SDS011;10137;49.406;19.484;2023-02-23T14:08:51;14.70;;;8.07;;
19951;SDS011;10137;49.406;19.484;2023-02-23T14:14:15;14.63;;;8.33;;
19951;SDS011;10137;49.406;19.484;2023-02-23T14:20:18;16.47;;;9.10;;
19951;SDS011;10137;49.406;19.484;2023-02-23T14:23:15;17.60;;;9.73;;
19951;SDS011;10137;49.406;19.484;2023-02-23T14:28:44;19.20;;;8.80;;
19951;SDS011;10137;49.406;19.484;2023-02-23T14:31:18;17.63;;;8.67;;
19951;SDS011;10137;49.406;19.484;2023-02-23T14:33:57;18.00;;;8.43;;
19951;SDS011;10137;49.406;19.484;2023-02-23T14:39:15;17.13;;;8.67;;
19951;SDS011;10137;49.406;19.484;2023-02-23T14:41:49;15.27;;;8.50;;
19951;SDS011;10137;49.406;19.484;2023-02-23T14:44:19;15.77;;;8.33;;
19951;SDS011;10137;49.406;19.484;2023-02-23T14:46:53;14.33;;;8.07;;
19951;SDS011;10137;49.406;19.484;2023-02-23T14:49:26;17.40;;;9.30;;
19951;SDS011;10137;49.406;19.484;2023-02-23T14:51:56;14.67;;;8.40;;
19951;SDS011;10137;49.406;19.484;2023-02-23T14:54:31;15.90;;;7.83;;
19951;SDS011;10137;49.406;19.484;2023-02-23T14:57:00;14.63;;;7.83;;
19951;SDS011;10137;49.406;19.484;2023-02-23T14:59:37;16.00;;;6.83;;
19951;SDS011;10137;49.406;19.484;2023-02-23T15:02:10;13.00;;;7.80;;
19951;SDS011;10137;49.406;19.484;2023-02-23T15:04:44;14.27;;;7.23;;
19951;SDS011;10137;49.406;19.484;2023-02-23T15:07:13;15.97;;;8.17;;
19951;SDS011;10137;49.406;19.484;2023-02-23T15:09:42;19.47;;;8.70;;
19951;SDS011;10137;49.406;19.484;2023-02-23T15:12:14;15.03;;;8.00;;
19951;SDS011;10137;49.406;19.484;2023-02-23T15:14:44;16.53;;;8.87;;
19951;SDS011;10137;49.406;19.484;2023-02-23T15:17:16;16.23;;;9.30;;